Nearby METAR Reports

 

KSEE - San Diego/Santee, California, USA
Distance from station: E 4mi, 6km
Updated: 03/31/2020 10:47am
Clear
Clear
 Wind from calm
Wind: Calm
Temperature: 63°F , 17°C
Dew Point: 48°F , 9°C
Humidity: 59%
Barometer: 30.04 inHg , 1017.3 hPa
Clouds: Clear
Visibility: 10 miles , 16 km
2020/03/31 17:47 KSEE 311747Z 00000KT 10SM SKC 17/09 A3004
KMYF - San Diego/Mntgmy, California, USA
Distance from station: W 6mi, 10km
Updated: 03/31/2020 10:53am
Clear
Clear
 Wind from calm
Wind: Calm
Temperature: 64°F , 18°C
Dew Point: 52°F , 11°C
Humidity: 64%
Barometer: 30.04 inHg , 1017.3 hPa
Clouds: Clear
Visibility: 10 miles , 16 km
2020/03/31 17:53 KMYF 311753Z 00000KT 10SM CLR 18/11 A3004 RMK AO2 SLP168 T01830111 10183 20122 58012
 
KNKX - Miramar Nas/San, California, USA
Distance from station: WNW 7mi, 11km
Updated: 03/31/2020 10:55am
Overcast
Overcast
 Wind from NW
Wind: NW 3 mph , 6 km/h
Temperature: 66°F , 19°C
Dew Point: 54°F , 12°C
Humidity: 64%
Barometer: 30.03 inHg , 1016.9 hPa
Clouds: Overcast
Visibility: 10 miles , 16 km
Cloud details: Overcast 20000 ft
2020/03/31 17:55 KNKX 311755Z 32003KT 10SM OVC200 19/12 A3003 RMK AO2 SLP163 T01890117 10189 20111 58012
KSAN - San Diego, California, USA
Distance from station: WSW 11mi, 17km
Updated: 03/31/2020 10:51am
Overcast
Overcast
 Wind from calm
Wind: Calm
Temperature: 64°F , 18°C
Dew Point: 55°F , 13°C
Humidity: 73%
Barometer: 30.05 inHg , 1017.6 hPa
Clouds: Overcast
Visibility: 10 miles , 16 km
Cloud details: Partly cloudy 21000 ft
Overcast 25000 ft
2020/03/31 17:51 KSAN 311751Z 00000KT 10SM SCT210 OVC250 18/13 A3005 RMK AO2 SLP175 T01830133 10189 20139 58013
 
KNZY - North Island Nas, California, USA
Distance from station: SW 13mi, 22km
Updated: 03/31/2020 10:52am
Clear
Clear
 Wind from NNW
Wind: NNW 6 mph , 9 km/h
Temperature: 63°F , 17°C
Dew Point: 54°F , 12°C
Humidity: 73%
Barometer: 30.03 inHg , 1016.9 hPa
Clouds: Clear
Visibility: 10 miles , 16 km
2020/03/31 17:52 KNZY 311752Z 34005KT 10SM CLR 17/12 A3003 RMK AO2 SLP167 T01720117 10172 20133 58013
KRNM - Ramona, California, USA
Distance from station: NNE 16mi, 26km
Updated: 03/31/2020 10:53am
Clear
Clear
 Wind from calm
Wind: Calm
Temperature: 66°F , 19°C
Dew Point: 48°F , 9°C
Humidity: 52%
Barometer: 30.05 inHg , 1017.6 hPa
Clouds: Clear
Visibility: 10 miles , 16 km
2020/03/31 17:53 KRNM 311753Z 00000KT 10SM CLR 19/09 A3005 RMK AO2 SLP169 T01890089 10189 20067 58008
 
KSDM - San Diego/Brown, California, USA
Distance from station: S 16mi, 26km
Updated: 03/31/2020 10:53am
Clear
Clear
 Wind from calm
Wind: Calm
Temperature: 63°F , 17°C
Dew Point: 54°F , 12°C
Humidity: 73%
Barometer: 30.03 inHg , 1016.9 hPa
Clouds: Clear
Visibility: 10 miles , 16 km
2020/03/31 17:53 KSDM 311753Z 00000KT 10SM CLR 17/12 A3003 RMK AO2 SLP167 T01720117 10172 20111 58013
KNRS - Imperial Beach, California, USA
Distance from station: SSW 18mi, 29km
Updated: 03/31/2020 10:56am
Overcast
Overcast
 Wind from N
Wind: N 8 mph , 13 km/h
Temperature: 63°F , 17°C
Dew Point: 54°F , 12°C
Humidity: 73%
Barometer: 30.04 inHg , 1017.3 hPa
Clouds: Overcast
Visibility: 10 miles , 16 km
Cloud details: Mostly cloudy 20000 ft
Overcast 25000 ft
2020/03/31 17:56 KNRS 311756Z 36007KT 10SM BKN200 OVC250 17/12 A3004 RMK AO2 SLP170 T01670117 58013 $
 
MMTJ - Tijuana Intl Arp, Mexico
Distance from station: S 20mi, 32km
Updated: 03/31/2020 10:46am
Overcast
Overcast
 Wind from calm
Wind: Calm
Temperature: 63°F , 17°C
Dew Point: 54°F , 12°C
Humidity: 73%
Barometer: 30.07 inHg , 1018.3 hPa
Clouds: Overcast
Visibility: 10 miles , 16 km
Cloud details: Overcast 20000 ft
2020/03/31 17:46 MMTJ 311746Z 00000KT 10SM OVC200 17/12 A3007 RMK SLP180 58004 9// 8/007
KCRQ - Carlsbad, California, USA
Distance from station: NW 26mi, 43km
Updated: 03/31/2020 10:53am
Clear
Clear
 Wind from calm
Wind: Calm
Temperature: 64°F , 18°C
Dew Point: 52°F , 11°C
Humidity: 64%
Barometer: 30.03 inHg , 1016.9 hPa
Clouds: Clear
Visibility: 10 miles , 16 km
2020/03/31 17:53 KCRQ 311753Z 00000KT 10SM CLR 18/11 A3003 RMK AO2 SLP167 T01780106 10178 20122 58009 $
 
KOKB - Oceanside, California, USA
Distance from station: NW 33mi, 54km
Updated: 03/31/2020 10:52am
Clear
Clear
 Wind from calm
Wind: Calm
Temperature: 64°F , 18°C
Dew Point: 54°F , 12°C
Humidity: 68%
Barometer: 30.03 inHg , 1016.9 hPa
Clouds: Clear
Visibility: 9 miles , 14 km
2020/03/31 17:52 KOKB 311752Z AUTO 00000KT 9SM CLR 18/12 A3003 RMK AO2 SLP169 T01830117 10183 20094 58011
KCZZ - Campo, California, USA
Distance from station: ESE 35mi, 56km
Updated: 03/31/2020 10:52am

 Wind from ENE
Wind: ENE 9 mph , 15 km/h
Temperature: 66°F , 19°C
Dew Point: 36°F , 2°C
Humidity: 32%
Barometer: 30.05 inHg , 1017.6 hPa
2020/03/31 17:52 KCZZ 311752Z AUTO 06008KT 19/02 A3005 RMK AO1 SLP155 T01890022 10189 20067 58008
 
KNFG - Camp Pendleton, California, USA
Distance from station: NNW 37mi, 59km
Updated: 03/31/2020 10:55am
Clear
Clear
 Wind from calm
Wind: Calm
Temperature: 64°F , 18°C
Dew Point: 52°F , 11°C
Humidity: 64%
Barometer: 30.04 inHg , 1017.3 hPa
Clouds: Clear
Visibility: 10 miles , 16 km
2020/03/31 17:55 KNFG 311755Z AUTO 00000KT 10SM CLR 18/11 A3004 RMK AO2 SLP170 T01830106 10183 20083 58013 $
KRIV - Riverside/March, California, USA
Distance from station: N 74mi, 119km
Updated: 03/31/2020 10:58am
Few Clouds
Few Clouds
 Wind from calm
Wind: Calm
Temperature: 66°F , 19°C
Dew Point: 48°F , 9°C
Humidity: 52%
Barometer: 30.05 inHg , 1017.6 hPa
Clouds: Few Clouds
Visibility: 10 miles , 16 km
Cloud details: Few Clouds 14000 ft
Few Clouds 17000 ft
2020/03/31 17:58 KRIV 311758Z AUTO 00000KT 10SM FEW140 FEW170 19/09 A3005 RMK AO2 SLP172 T01890088 10189 20058 58012
 
KTRM - Thermal/Palm Spg, California, USA
Distance from station: NE 75mi, 121km
Updated: 03/31/2020 10:52am
Clear
Clear
 Wind from varies
Wind: varies 3 mph , 6 km/h
Temperature: 73°F , 23°C
Dew Point: 39°F , 4°C
Humidity: 29%
Barometer: 30.02 inHg , 1016.6 hPa
Clouds: Clear
Visibility: 9 miles , 14 km
2020/03/31 17:52 KTRM 311752Z AUTO VRB03KT 9SM CLR 23/04 A3002 RMK AO2 SLP167 T02330044 10233 20111 58008
KPSP - Palm Springs, California, USA
Distance from station: NNE 76mi, 122km
Updated: 03/31/2020 10:53am
Clear
Clear
 Wind from calm
Wind: Calm
Temperature: 73°F , 23°C
Dew Point: 39°F , 4°C
Humidity: 29%
Barometer: 30.05 inHg , 1017.6 hPa
Clouds: Clear
Visibility: 10 miles , 16 km
2020/03/31 17:53 KPSP 311753Z 00000KT 10SM CLR 23/04 A3005 RMK AO2 SLP175 T02330039 10233 20150 58012
 
KSNA - Costa Mesa, California, USA
Distance from station: NW 76mi, 123km
Updated: 03/31/2020 10:53am
Overcast
Overcast
 Wind from SSW
Wind: SSW 8 mph , 13 km/h
Temperature: 66°F , 19°C
Dew Point: 50°F , 10°C
Humidity: 56%
Barometer: 30.04 inHg , 1017.3 hPa
Clouds: Overcast
Visibility: 10 miles , 16 km
Cloud details: Overcast 20000 ft
2020/03/31 17:53 KSNA 311753Z 20007KT 10SM OVC200 19/10 A3004 RMK AO2 SLP173 T01890100 10189 20133 56009
KNJK - El Centro Naf, California, USA
Distance from station: E 79mi, 127km
Updated: 03/31/2020 10:56am
Overcast
Overcast
 Wind from NW
Wind: NW 5 mph , 7 km/h
Temperature: 72°F , 22°C
Dew Point: 36°F , 2°C
Humidity: 27%
Barometer: 30.05 inHg , 1017.6 hPa
Clouds: Overcast
Visibility: 10 miles , 16 km
Cloud details: Overcast 25000 ft
2020/03/31 17:56 KNJK 311756Z 31004KT 10SM OVC250 22/02 A3005 RMK AO2 SLP191 T02220022 10222 20117 58005 $
 
KAJO - Corona Muni, California, USA
Distance from station: NNW 82mi, 132km
Updated: 03/31/2020 10:56am
Clear
Clear
 Wind from ENE
Wind: ENE 3 mph , 6 km/h
Temperature: 70°F , 21°C
Dew Point: 52°F , 11°C
Humidity: 53%
Barometer: 30.05 inHg , 1017.6 hPa
Clouds: Clear
Visibility: 10 miles , 16 km
2020/03/31 17:56 KAJO 311756Z AUTO 07003KT 10SM CLR 21/11 A3005 RMK AO2 SLP170 6//// T02060106 10206 20078